1880 Hurricane NOT_NAMED (1880248N22283)


IBTrACS version v04r00. Visit IBTrACS website for data access.
Please direct all questions to the IBTrACS Q and A forum

Storm track - Intensity - Wind Radii - Intensity Data - Source Data - All data

Summary Information

Storm ID 1880248N22283
Start Sep 4 00Z
Landfall Sep 10 09Z
Max Intensity 80 kt (Sep 8 00Z), 976 mb (Sep 14 06Z)
End Sep 14 12Z
ATCF IDs ,AL071880
Track status Best track data.

Storm track plot

Map of storm track

Intensity plots

Map of storm track

Radial wind information

No radial wind information for this storm


Position and Intensity Table

BASIN ISO_TIME_________ NATURE LAT LON WMO WIND USA WIND MLC WIND MLC PRES
degrees north degrees east kts kts kts mb
NA 1880-09-04 00:00:00 TS 21.80 -77.00 30
NA 03:00:00 TS 21.84 -77.10 30
NA 06:00:00 TS 21.90 -77.20 30
NA 09:00:00 TS 21.98 -77.30 30
NA 12:00:00 TS 22.10 -77.40 30
NA 15:00:00 TS 22.24 -77.50 30
NA 18:00:00 TS 22.40 -77.60 30
NA 21:00:00 TS 22.55 -77.70 30
NA 1880-09-05 00:00:00 TS 22.70 -77.80 30
NA 03:00:00 TS 22.84 -77.91 30
NA 06:00:00 TS 23.00 -78.00 30
NA 09:00:00 TS 23.19 -78.05 32
NA 12:00:00 TS 23.40 -78.10 35
NA 15:00:00 TS 23.61 -78.19 35
NA 18:00:00 TS 23.80 -78.30 35
NA 21:00:00 TS 23.95 -78.40 37
NA 1880-09-06 00:00:00 TS 24.10 -78.50 40
NA 03:00:00 TS 24.29 -78.60 40
NA 06:00:00 TS 24.50 -78.70 40
NA 09:00:00 TS 24.70 -78.81 42
NA 12:00:00 TS 24.90 -78.90 45
NA 15:00:00 TS 25.03 -78.97 45
NA 18:00:00 TS 25.30 -79.00 45
NA 21:00:00 TS 25.88 -79.04 47
NA 1880-09-07 00:00:00 TS 26.60 -79.00 50
NA 03:00:00 TS 27.25 -78.81 52
NA 06:00:00 TS 27.90 -78.50 55
NA 09:00:00 TS 28.55 -78.12 57
NA 12:00:00 TS 29.20 -77.70 60
NA 15:00:00 TS 29.84 -77.44 60
NA 18:00:00 TS 30.50 -77.00 60
NA 21:00:00 TS 31.18 -76.06 62
NA 1880-09-08 00:00:00 TS 31.93 -74.50 80 80 65
NA 03:00:00 TS 32.72 -73.63 80 67
NA 06:00:00 TS 33.50 -72.90 80 80 70 987
NA 09:00:00 TS 34.23 -72.11 80 72 984
NA 12:00:00 TS 35.00 -71.27 80 80 75 982
NA 15:00:00 TS 35.84 -70.32 80 75
NA 18:00:00 TS 36.73 -69.33 80 80 75
NA 21:00:00 TS 37.66 -68.44 75 75
NA 1880-09-09 00:00:00 TS 38.57 -67.53 70 70 75
NA 03:00:00 TS 39.40 -66.50 70 75
NA 06:00:00 TS 40.20 -65.43 70 70 75
NA 09:00:00 TS 41.01 -64.48 65 72
NA 12:00:00 TS 41.87 -63.43 60 60 70 996
NA 15:00:00 TS 42.80 -62.10 60 67
NA 18:00:00 TS 43.73 -60.63 60 60 65
NA 21:00:00 TS 44.58 -59.23 60 62
NA 1880-09-10 00:00:00 TS 45.40 -57.77 60 60 60
NA 03:00:00 TS 46.24 -56.16 60 60
NA 06:00:00 TS 47.00 -54.47 60 60 60
NA 09:00:00 TS 47.57 -52.79 55 60
NA 12:00:00 TS 47.98 -50.88 50 50 60
NA 15:00:00 TS 48.27 -48.81 50 60
NA 18:00:00 MX 48.27 -46.80 50 50 60
NA 21:00:00 ET 47.54 -45.41 60
NA 1880-09-11 00:00:00 ET 47.70 -44.70 60
NA 03:00:00 ET 47.81 -43.52 60
NA 06:00:00 ET 47.90 -42.20 60
NA 09:00:00 ET 47.99 -40.94 60
NA 12:00:00 ET 48.10 -39.70 60
NA 15:00:00 ET 48.25 -38.49 60
NA 18:00:00 ET 48.40 -37.30 60
NA 21:00:00 ET 48.51 -36.10 60
NA 1880-09-12 00:00:00 ET 48.60 -34.90 60
NA 03:00:00 ET 48.70 -33.71 60
NA 06:00:00 ET 48.80 -32.50 60
NA 09:00:00 ET 48.89 -31.24 60
NA 12:00:00 ET 49.00 -30.00 60
NA 15:00:00 ET 49.15 -28.83 60
NA 18:00:00 ET 49.30 -27.70 60
NA 21:00:00 ET 49.40 -26.59 60
NA 1880-09-13 00:00:00 ET 49.50 -25.50 60
NA 03:00:00 ET 49.65 -24.41 60
NA 06:00:00 ET 49.80 -23.30 60
NA 09:00:00 ET 49.92 -22.17 60
NA 12:00:00 ET 50.00 -21.00 60
NA 15:00:00 ET 50.01 -19.76 60
NA 18:00:00 ET 50.00 -18.50 60
NA 21:00:00 ET 50.00 -17.25 60
NA 1880-09-14 00:00:00 ET 50.00 -16.00 60
NA 03:00:00 ET 50.00 -14.75 60
NA 06:00:00 ET 50.00 -13.50 60 976
NA 09:00:00 ET 50.00 -12.25 60
NA 12:00:00 ET 50.00 -11.00 60

Source Information

Agency Information
USA hurdat2-1851-2018-051019.txt:Line=4168:UNNAMED
TOKYO
CMA
HKO
NEWDELHI
REUNION
BOM
NADI
WELLINGTON
DS824
TD9636
TD9635
NEUMANN
MLC

All available IBTrACS Data

SEASON BASIN SUBBASIN ISO_TIME_________ NATURE LAT LON WMO WIND WMO AGENCY DIST2LAND LANDFALL IFLAG USA AGENCY USA ATCF_ID USA LAT USA LON USA STATUS USA WIND USA SSHS MLC LAT MLC LON MLC CLASS MLC WIND MLC PRES STORM SPEED STORM DIR
Year degrees north degrees east kts km km degrees north degrees east kts 1 degrees north degrees east kts mb kts degrees
1880 NA NA 1880-09-04 00:00:00 TS 21.80 -77.00 15 11 _____________O -1 21.80 -77.00 TD 30 2 294
1880 NA NA 03:00:00 TS 21.84 -77.10 11 11 _____________P -1 21.84 -77.10 TD 30 2 299
1880 NA NA 06:00:00 TS 21.90 -77.20 22 22 _____________O -1 21.90 -77.20 TD 30 2 307
1880 NA NA 09:00:00 TS 21.98 -77.30 33 33 _____________P -1 21.98 -77.30 TD 30 3 317
1880 NA NA 12:00:00 TS 22.10 -77.40 45 45 _____________O -1 22.10 -77.40 TD 30 3 324
1880 NA NA 15:00:00 TS 22.24 -77.50 45 45 _____________P -1 22.24 -77.50 TD 30 4 329
1880 NA NA 18:00:00 TS 22.40 -77.60 59 59 _____________O -1 22.40 -77.60 TD 30 4 329
1880 NA NA 21:00:00 TS 22.55 -77.70 73 63 _____________P -1 22.55 -77.70 TD 30 4 329
1880 NA NA 1880-09-05 00:00:00 TS 22.70 -77.80 76 75 _____________O -1 22.70 -77.80 TD 30 4 327
1880 NA NA 03:00:00 TS 22.84 -77.91 75 75 _____________P -1 22.84 -77.91 TD 30 4 329
1880 NA NA 06:00:00 TS 23.00 -78.00 88 88 _____________O -1 23.00 -78.00 TD 30 4 340
1880 NA NA 09:00:00 TS 23.19 -78.05 105 89 _____________P -1 23.19 -78.05 TD 32 4 348
1880 NA NA 12:00:00 TS 23.40 -78.10 89 70 _____________O -1 23.40 -78.10 TS 35 4 342
1880 NA NA 15:00:00 TS 23.61 -78.19 70 54 _____________P -1 23.61 -78.19 TS 35 4 336
1880 NA NA 18:00:00 TS 23.80 -78.30 54 45 _____________O -1 23.80 -78.30 TS 35 4 331
1880 NA NA 21:00:00 TS 23.95 -78.40 52 45 _____________P -1 23.95 -78.40 TS 37 4 329
1880 NA NA 1880-09-06 00:00:00 TS 24.10 -78.50 45 35 _____________O -1 24.10 -78.50 TS 40 4 332
1880 NA NA 03:00:00 TS 24.29 -78.60 35 23 _____________P -1 24.29 -78.60 TS 40 4 336
1880 NA NA 06:00:00 TS 24.50 -78.70 23 20 _____________O -1 24.50 -78.70 TS 40 5 335
1880 NA NA 09:00:00 TS 24.70 -78.81 32 32 _____________P -1 24.70 -78.81 TS 42 4 336
1880 NA NA 12:00:00 TS 24.90 -78.90 52 52 _____________O -1 24.90 -78.90 TS 45 4 336
1880 NA NA 15:00:00 TS 25.03 -78.97 67 67 _____________P -1 25.03 -78.97 TS 45 4 348
1880 NA NA 18:00:00 TS 25.30 -79.00 89 89 _____________O -1 25.30 -79.00 TS 45 9 355
1880 NA NA 21:00:00 TS 25.88 -79.04 109 101 _____________P -1 25.88 -79.04 TS 47 13 1
1880 NA NA 1880-09-07 00:00:00 TS 26.60 -79.00 101 99 _____________O -1 26.60 -79.00 TS 50 14 9
1880 NA NA 03:00:00 TS 27.25 -78.81 126 126 _____________P -1 27.25 -78.81 TS 52 14 19
1880 NA NA 06:00:00 TS 27.90 -78.50 184 184 _____________O -1 27.90 -78.50 TS 55 14 25
1880 NA NA 09:00:00 TS 28.55 -78.12 234 234 _____________P -1 28.55 -78.12 TS 57 15 28
1880 NA NA 12:00:00 TS 29.20 -77.70 283 283 _____________O -1 29.20 -77.70 TS 60 14 25
1880 NA NA 15:00:00 TS 29.84 -77.44 333 333 _____________P -1 29.84 -77.44 TS 60 14 25
1880 NA NA 18:00:00 TS 30.50 -77.00 359 350 _____________O -1 30.50 -77.00 TS 60 18 42
1880 NA NA 21:00:00 TS 31.18 -76.06 349 349 _____________P -1 31.18 -76.06 TS 62 26 56
1880 NA NA 1880-09-08 00:00:00 TS 31.93 -74.50 80 hurdat_atl 363 341 O____________O hurdat_atl AL071880 32.00 -73.50 HU 80 1 31.90 -75.00 HU 65 26 53
1880 NA NA 03:00:00 TS 32.72 -73.63 348 340 P____________P AL071880 32.75 -73.04 HU 80 1 32.69 -74.23 HU 67 21 41
1880 NA NA 06:00:00 TS 33.50 -72.90 80 hurdat_atl 346 345 O____________O hurdat_atl AL071880 33.50 -72.50 HU 80 1 33.50 -73.50 HU 70 987 20 40
1880 NA NA 09:00:00 TS 34.23 -72.11 356 351 P____________P AL071880 34.25 -71.82 HU 80 1 34.20 -72.68 HU 72 984 20 42
1880 NA NA 12:00:00 TS 35.00 -71.27 80 hurdat_atl 390 390 O____________O hurdat_atl AL071880 35.00 -71.00 HU 80 1 35.00 -71.80 HU 75 982 22 42
1880 NA NA 15:00:00 TS 35.84 -70.32 467 467 P____________P AL071880 35.74 -70.06 HU 80 1 36.05 -70.82 HU 75 23 42
1880 NA NA 18:00:00 TS 36.73 -69.33 80 hurdat_atl 536 473 O____________O hurdat_atl AL071880 36.50 -69.10 HU 80 1 37.20 -69.80 HU 75 24 40
1880 NA NA 21:00:00 TS 37.66 -68.44 465 410 P____________P AL071880 37.34 -68.26 HU 75 1 38.29 -68.82 HU 75 23 38
1880 NA NA 1880-09-09 00:00:00 TS 38.57 -67.53 70 hurdat_atl 404 384 O____________O hurdat_atl AL071880 38.20 -67.40 HU 70 1 39.30 -67.80 HU 75 23 41
1880 NA NA 03:00:00 TS 39.40 -66.50 390 367 P____________P AL071880 39.00 -66.41 HU 70 1 40.19 -66.66 HU 75 23 45
1880 NA NA 06:00:00 TS 40.20 -65.43 70 hurdat_atl 367 285 O____________O hurdat_atl AL071880 39.80 -65.40 HU 70 1 41.00 -65.50 HU 75 22 44
1880 NA NA 09:00:00 TS 41.01 -64.48 285 234 P____________P AL071880 40.63 -64.48 HU 65 1 41.79 -64.49 HU 72 22 42
1880 NA NA 12:00:00 TS 41.87 -63.43 60 hurdat_atl 235 215 O____________O hurdat_atl AL071880 41.50 -63.50 TS 60 0 42.60 -63.30 HU 70 996 25 45
1880 NA NA 15:00:00 TS 42.80 -62.10 214 169 P____________P AL071880 42.44 -62.34 TS 60 0 43.52 -61.61 HU 67 28 48
1880 NA NA 18:00:00 TS 43.73 -60.63 60 hurdat_atl 171 143 O____________O hurdat_atl AL071880 43.40 -61.10 TS 60 0 44.40 -59.70 HU 65 27 49
1880 NA NA 21:00:00 TS 44.58 -59.23 145 142 P____________P AL071880 44.30 -59.90 TS 60 0 45.14 -57.90 HU 62 26 51
1880 NA NA 1880-09-10 00:00:00 TS 45.40 -57.77 60 hurdat_atl 178 76 O____________O hurdat_atl AL071880 45.20 -58.60 TS 60 0 45.80 -56.10 TS 60 27 52
1880 NA NA 03:00:00 TS 46.24 -56.16 76 26 P____________P AL071880 46.12 -57.12 TS 60 0 46.49 -54.22 TS 60 28 55
1880 NA NA 06:00:00 TS 47.00 -54.47 60 hurdat_atl 30 0 O____________O hurdat_atl AL071880 47.00 -55.50 TS 60 0 47.00 -52.40 TS 60 26 60
1880 NA NA 09:00:00 TS 47.57 -52.79 0 0 P____________P AL071880 47.77 -53.81 TS 55 0 47.17 -50.74 TS 60 26 68
1880 NA NA 12:00:00 TS 47.98 -50.88 50 hurdat_atl 138 138 O____________O hurdat_atl AL071880 48.50 -52.00 TS 50 0 47.20 -49.20 TS 60 27 75
1880 NA NA 15:00:00 TS 48.27 -48.81 295 295 P____________P AL071880 49.25 -50.05 TS 50 0 47.29 -47.57 TS 60 27 84
1880 NA NA 18:00:00 MX 48.27 -46.80 50 hurdat_atl 439 439 O____________O hurdat_atl AL071880 50.00 -48.00 TS 50 0 47.40 -46.20 EX 60 24 108
1880 NA NA 21:00:00 ET 47.54 -45.41 538 538 _____________P AL071880 TS -1 47.54 -45.41 EX 60 15 112
1880 NA NA 1880-09-11 00:00:00 ET 47.70 -44.70 589 589 _____________O -1 47.70 -44.70 EX 60 13 78
1880 NA NA 03:00:00 ET 47.81 -43.52 679 679 _____________P -1 47.81 -43.52 EX 60 17 83
1880 NA NA 06:00:00 ET 47.90 -42.20 775 775 _____________O -1 47.90 -42.20 EX 60 17 84
1880 NA NA 09:00:00 ET 47.99 -40.94 871 871 _____________P -1 47.99 -40.94 EX 60 17 83
1880 NA NA 12:00:00 ET 48.10 -39.70 960 960 _____________O -1 48.10 -39.70 EX 60 16 81
1880 NA NA 15:00:00 ET 48.25 -38.49 1048 1048 _____________P -1 48.25 -38.49 EX 60 16 79
1880 NA NA 18:00:00 ET 48.40 -37.30 1136 1136 _____________O -1 48.40 -37.30 EX 60 16 81
1880 NA NA 21:00:00 ET 48.51 -36.10 1224 1224 _____________P -1 48.51 -36.10 EX 60 16 83
1880 NA NA 1880-09-12 00:00:00 ET 48.60 -34.90 1312 1312 _____________O -1 48.60 -34.90 EX 60 16 83
1880 NA NA 03:00:00 ET 48.70 -33.71 1397 1397 _____________P -1 48.70 -33.71 EX 60 16 83
1880 NA NA 06:00:00 ET 48.80 -32.50 1421 1421 _____________O -1 48.80 -32.50 EX 60 16 83
1880 NA NA 09:00:00 ET 48.89 -31.24 1452 1415 _____________P -1 48.89 -31.24 EX 60 16 83
1880 NA NA 12:00:00 ET 49.00 -30.00 1408 1330 _____________O -1 49.00 -30.00 EX 60 16 81
1880 NA NA 15:00:00 ET 49.15 -28.83 1323 1248 _____________P -1 49.15 -28.83 EX 60 15 79
1880 NA NA 18:00:00 ET 49.30 -27.70 1241 1170 _____________O -1 49.30 -27.70 EX 60 15 80
1880 NA NA 21:00:00 ET 49.40 -26.59 1163 1092 _____________P -1 49.40 -26.59 EX 60 14 82
1880 NA NA 1880-09-13 00:00:00 ET 49.50 -25.50 1085 1014 _____________O -1 49.50 -25.50 EX 60 14 80
1880 NA NA 03:00:00 ET 49.65 -24.41 1008 933 _____________P -1 49.65 -24.41 EX 60 14 78
1880 NA NA 06:00:00 ET 49.80 -23.30 926 849 _____________O -1 49.80 -23.30 EX 60 15 79
1880 NA NA 09:00:00 ET 49.92 -22.17 849 772 _____________P -1 49.92 -22.17 EX 60 15 82
1880 NA NA 12:00:00 ET 50.00 -21.00 765 685 _____________O -1 50.00 -21.00 EX 60 15 87
1880 NA NA 15:00:00 ET 50.01 -19.76 685 605 _____________P -1 50.01 -19.76 EX 60 16 90
1880 NA NA 18:00:00 ET 50.00 -18.50 599 520 _____________O -1 50.00 -18.50 EX 60 16 91
1880 NA NA 21:00:00 ET 50.00 -17.25 514 444 _____________P -1 50.00 -17.25 EX 60 16 90
1880 NA NA 1880-09-14 00:00:00 ET 50.00 -16.00 438 366 _____________O -1 50.00 -16.00 EX 60 16 90
1880 NA NA 03:00:00 ET 50.00 -14.75 360 296 _____________P -1 50.00 -14.75 EX 60 16 90
1880 NA NA 06:00:00 ET 50.00 -13.50 291 230 _____________O -1 50.00 -13.50 EX 60 976 16 90
1880 NA NA 09:00:00 ET 50.00 -12.25 230 180 _____________P -1 50.00 -12.25 EX 60 16 90
1880 NA NA 12:00:00 ET 50.00 -11.00 176 _____________O -1 50.00 -11.00 EX 60 16 90